Time;durP1;ratioP1;P1;durP2;ratioP2;P2;SDS_P1;SDS_P2;PMS_P1;PMS_P2;Temp;Humidity;BMP_temperature;BMP_pressure;BME280_temperature;BME280_humidity;BME280_pressure;Samples;Min_cycle;Max_cycle;Signal;HPM_P1;HPM_P2
2023/02/12 00:00:07;;;;;;;138.73;61.58;;;7.80;99.90;;;;;;5048635;28;20037;-68
2023/02/12 00:02:32;;;;;;;142.27;62.80;;;7.80;99.90;;;;;;5053069;28;20573;-68
2023/02/12 00:04:58;;;;;;;142.88;62.13;;;7.80;99.90;;;;;;5055360;28;20037;-68
2023/02/12 00:07:23;;;;;;;147.32;62.88;;;7.80;99.90;;;;;;5036779;28;20160;-68
2023/02/12 00:09:49;;;;;;;143.98;62.83;;;7.80;99.90;;;;;;5035358;28;20030;-68
2023/02/12 00:12:15;;;;;;;142.07;63.10;;;7.70;99.90;;;;;;5047548;28;20033;-68
2023/02/12 00:14:40;;;;;;;141.38;66.40;;;7.70;99.90;;;;;;5054788;28;20430;-68
2023/02/12 00:17:06;;;;;;;158.65;69.80;;;7.70;99.90;;;;;;5042197;28;20071;-69
2023/02/12 00:19:31;;;;;;;156.07;69.68;;;7.70;99.90;;;;;;5042714;28;20486;-69
2023/02/12 00:21:57;;;;;;;157.35;68.10;;;7.70;99.90;;;;;;5039766;28;20048;-69
2023/02/12 00:24:22;;;;;;;152.73;66.53;;;7.70;99.90;;;;;;5035097;28;20107;-69
2023/02/12 00:26:49;;;;;;;151.95;68.47;;;7.70;99.90;;;;;;5042847;28;20063;-68
2023/02/12 00:29:15;;;;;;;156.40;68.47;;;7.70;99.90;;;;;;5054033;28;20055;-67
2023/02/12 00:31:41;;;;;;;156.63;69.25;;;7.70;99.90;;;;;;5061988;28;20042;-69
2023/02/12 00:34:06;;;;;;;152.43;66.22;;;7.70;99.90;;;;;;5074432;28;20025;-68
2023/02/12 00:36:32;;;;;;;160.05;67.75;;;7.70;99.90;;;;;;5039931;28;20042;-68
2023/02/12 00:38:58;;;;;;;160.52;66.82;;;7.60;99.90;;;;;;5035118;28;20028;-69
2023/02/12 00:41:25;;;;;;;149.00;67.88;;;7.60;99.90;;;;;;5043580;28;20052;-68
2023/02/12 00:43:51;;;;;;;151.60;67.53;;;7.60;99.90;;;;;;5045279;28;20025;-68
2023/02/12 00:46:16;;;;;;;159.95;66.97;;;7.60;99.90;;;;;;5054022;28;20029;-69
2023/02/12 00:48:42;;;;;;;145.40;63.70;;;7.60;99.90;;;;;;5052666;28;20501;-69
2023/02/12 00:51:08;;;;;;;150.05;67.47;;;7.60;99.90;;;;;;5054148;28;20032;-69
2023/02/12 00:53:34;;;;;;;152.23;64.15;;;7.60;99.90;;;;;;5043683;28;20080;-69
2023/02/12 00:56:00;;;;;;;146.18;63.85;;;7.60;99.90;;;;;;5052615;28;20110;-67
2023/02/12 00:58:26;;;;;;;144.45;63.70;;;7.60;99.90;;;;;;5048114;28;20034;-69
2023/02/12 01:00:53;;;;;;;151.30;65.85;;;7.60;99.90;;;;;;5042795;28;20070;-69
2023/02/12 01:03:18;;;;;;;146.88;63.90;;;7.50;99.90;;;;;;5049913;28;20049;-69
2023/02/12 01:05:44;;;;;;;143.45;62.53;;;7.50;99.90;;;;;;5039533;28;20064;-68
2023/02/12 01:08:12;;;;;;;146.75;62.42;;;7.50;99.90;;;;;;5051854;28;20471;-68
2023/02/12 01:10:38;;;;;;;154.88;66.25;;;7.50;99.90;;;;;;5046161;28;20410;-68
2023/02/12 01:13:04;;;;;;;153.40;66.43;;;7.50;99.90;;;;;;5049081;28;20043;-68
2023/02/12 01:15:29;;;;;;;151.73;65.68;;;7.50;99.90;;;;;;5043772;28;20059;-67
2023/02/12 01:17:55;;;;;;;151.88;66.03;;;7.50;99.90;;;;;;5047526;28;20032;-68
2023/02/12 01:20:22;;;;;;;153.95;65.30;;;7.50;99.90;;;;;;5050771;28;20064;-68
2023/02/12 01:22:48;;;;;;;153.65;65.40;;;7.50;99.90;;;;;;5050587;28;20021;-68
2023/02/12 01:25:14;;;;;;;148.95;65.40;;;7.50;99.90;;;;;;5053398;28;20040;-68
2023/02/12 01:27:40;;;;;;;148.65;64.50;;;7.50;99.90;;;;;;5049950;28;20108;-68
2023/02/12 01:30:10;;;;;;;152.25;64.18;;;7.50;99.90;;;;;;5052185;28;20431;-68
2023/02/12 01:32:36;;;;;;;146.30;64.30;;;7.50;99.90;;;;;;5034887;28;20387;-68
2023/02/12 01:35:02;;;;;;;148.38;66.35;;;7.50;99.90;;;;;;5040098;28;20029;-69
2023/02/12 01:37:27;;;;;;;140.15;63.15;;;7.50;99.90;;;;;;5047125;28;20468;-68
2023/02/12 01:39:53;;;;;;;147.68;63.55;;;7.50;99.90;;;;;;5037105;28;20455;-68
2023/02/12 01:42:18;;;;;;;141.90;61.53;;;7.50;99.90;;;;;;5037346;28;20379;-67
2023/02/12 01:45:05;;;;;;;141.48;60.85;;;7.50;99.90;;;;;;5045520;28;20037;-68
2023/02/12 01:47:31;;;;;;;142.02;62.38;;;7.40;99.90;;;;;;5051997;28;20039;-67
2023/02/12 01:49:57;;;;;;;139.02;62.40;;;7.50;99.90;;;;;;5037382;28;20040;-68
2023/02/12 01:52:27;;;;;;;139.07;63.35;;;7.40;99.90;;;;;;5037138;28;20040;-68
2023/02/12 01:54:54;;;;;;;135.95;62.30;;;7.50;99.90;;;;;;5039878;28;20122;-69
2023/02/12 01:57:20;;;;;;;141.02;65.18;;;7.50;99.90;;;;;;5038345;28;20030;-68
2023/02/12 01:59:51;;;;;;;144.27;62.60;;;7.40;99.90;;;;;;5045629;28;20028;-68
2023/02/12 02:02:16;;;;;;;147.85;62.35;;;7.40;99.90;;;;;;5052220;28;20032;-68
2023/02/12 02:04:50;;;;;;;141.05;61.33;;;7.40;99.90;;;;;;5041121;28;20032;-68
2023/02/12 02:07:16;;;;;;;136.60;59.80;;;7.40;99.90;;;;;;5053079;28;20037;-68
2023/02/12 02:09:42;;;;;;;136.85;61.15;;;7.40;99.90;;;;;;5051081;28;20021;-68
2023/02/12 02:14:57;;;;;;;141.80;60.90;;;7.40;99.90;;;;;;5051776;28;20102;-68
2023/02/12 02:18:00;;;;;;;147.10;62.03;;;7.40;99.90;;;;;;5035209;28;20049;-67
2023/02/12 02:21:05;;;;;;;142.32;60.35;;;7.30;99.90;;;;;;5033700;28;20376;-68
2023/02/12 02:23:57;;;;;;;139.65;63.20;;;7.40;99.90;;;;;;5041135;28;20108;-68
2023/02/12 02:26:49;;;;;;;135.98;60.08;;;7.30;99.90;;;;;;5046719;28;20033;-68
2023/02/12 02:29:53;;;;;;;127.57;58.70;;;7.30;99.90;;;;;;5051689;28;20064;-68
2023/02/12 02:32:31;;;;;;;150.00;62.53;;;7.30;99.90;;;;;;5051529;28;20037;-68
2023/02/12 02:38:06;;;;;;;133.65;61.10;;;7.30;99.90;;;;;;5090796;28;20423;-67
2023/02/12 02:40:45;;;;;;;122.97;57.38;;;7.30;99.90;;;;;;5089401;28;20099;-66
2023/02/12 02:43:20;;;;;;;133.50;60.78;;;7.30;99.90;;;;;;5070998;28;20111;-67
2023/02/12 02:45:50;;;;;;;126.78;57.28;;;7.30;99.90;;;;;;5073880;28;20493;-67
2023/02/12 02:48:23;;;;;;;113.03;56.13;;;7.30;99.90;;;;;;5078075;28;20036;-67
2023/02/12 02:50:54;;;;;;;133.98;58.97;;;7.20;99.90;;;;;;5070265;28;20037;-67
2023/02/12 02:53:27;;;;;;;122.50;57.85;;;7.30;99.90;;;;;;5070256;28;20139;-67
2023/02/12 02:55:55;;;;;;;136.32;60.10;;;7.20;99.90;;;;;;5080525;28;20036;-67
2023/02/12 02:58:28;;;;;;;136.50;61.45;;;7.30;99.90;;;;;;5088594;28;20165;-68
2023/02/12 03:01:16;;;;;;;137.07;59.97;;;7.20;99.90;;;;;;5081711;28;20059;-67
2023/02/12 03:03:50;;;;;;;133.80;59.20;;;7.30;99.90;;;;;;5084403;28;20443;-67
2023/02/12 03:06:44;;;;;;;139.50;61.42;;;7.30;99.90;;;;;;5080947;28;20040;-67
2023/02/12 03:09:20;;;;;;;140.80;60.35;;;7.20;99.90;;;;;;5069148;28;20125;-67
2023/02/12 03:11:46;;;;;;;135.25;59.40;;;7.20;99.90;;;;;;5086370;28;20032;-67
2023/02/12 03:14:22;;;;;;;137.98;60.97;;;7.20;99.90;;;;;;5087824;28;20055;-67
2023/02/12 03:16:56;;;;;;;140.75;61.97;;;7.20;99.90;;;;;;5073797;28;20503;-67
2023/02/12 03:19:27;;;;;;;138.48;59.85;;;7.20;99.90;;;;;;5079865;28;20028;-67
2023/02/12 03:22:02;;;;;;;135.93;59.05;;;7.20;99.90;;;;;;5080030;28;20364;-67
2023/02/12 03:24:41;;;;;;;133.40;58.60;;;7.20;99.90;;;;;;5088366;28;20423;-67
2023/02/12 03:29:47;;;;;;;129.80;59.53;;;7.10;99.90;;;;;;5111199;27;20901;-67
2023/02/12 03:32:40;;;;;;;138.23;59.42;;;7.10;99.90;;;;;;5099018;28;20028;-67
2023/02/12 03:35:20;;;;;;;129.80;57.93;;;7.10;99.90;;;;;;5109974;28;20030;-67
2023/02/12 03:37:57;;;;;;;129.15;57.45;;;7.10;99.90;;;;;;5108258;28;20031;-67
2023/02/12 03:40:48;;;;;;;125.20;57.45;;;7.00;99.90;;;;;;5108548;28;20492;-67
2023/02/12 03:43:23;;;;;;;130.38;57.88;;;7.10;99.90;;;;;;5110057;28;20031;-67
2023/02/12 03:46:00;;;;;;;132.93;58.88;;;7.00;99.90;;;;;;5109993;28;20034;-67
2023/02/12 03:48:44;;;;;;;133.55;59.55;;;7.00;99.90;;;;;;5097739;28;20028;-67
2023/02/12 03:51:25;;;;;;;140.82;59.13;;;7.10;99.90;;;;;;5098876;28;20021;-67
2023/02/12 03:53:51;;;;;;;133.82;58.88;;;7.10;99.90;;;;;;5095373;28;20477;-66
2023/02/12 03:56:23;;;;;;;142.70;61.35;;;7.10;99.90;;;;;;5108389;28;20038;-68
2023/02/12 03:58:48;;;;;;;143.43;62.25;;;7.10;99.90;;;;;;5108962;28;20067;-67
2023/02/12 04:01:14;;;;;;;138.32;59.85;;;7.10;99.90;;;;;;5108593;28;20059;-67
2023/02/12 04:03:40;;;;;;;137.77;61.33;;;7.10;99.90;;;;;;5109431;28;20114;-67
2023/02/12 04:06:18;;;;;;;137.13;59.20;;;7.10;99.90;;;;;;5107918;28;20031;-67
2023/02/12 04:08:44;;;;;;;139.95;60.72;;;7.10;99.90;;;;;;5106685;28;20030;-67
2023/02/12 04:11:24;;;;;;;142.75;62.53;;;7.10;99.90;;;;;;5107776;28;20040;-68
2023/02/12 04:14:07;;;;;;;136.27;59.67;;;7.10;99.90;;;;;;5091216;28;20035;-67
2023/02/12 04:16:44;;;;;;;136.68;57.88;;;7.10;99.90;;;;;;5109372;28;20489;-67
2023/02/12 04:19:14;;;;;;;139.75;61.42;;;7.10;99.90;;;;;;5109873;28;20161;-67
2023/02/12 04:22:13;;;;;;;138.73;61.35;;;7.10;99.90;;;;;;5103504;28;20467;-68
2023/02/12 04:25:02;;;;;;;133.63;60.03;;;7.10;99.90;;;;;;5108814;28;20034;-67
2023/02/12 04:27:39;;;;;;;140.27;60.42;;;7.10;99.90;;;;;;5096139;28;20028;-67
2023/02/12 04:30:22;;;;;;;145.25;59.97;;;7.10;99.90;;;;;;5107699;28;20389;-67
2023/02/12 04:32:55;;;;;;;139.63;59.08;;;7.10;99.90;;;;;;5092566;28;20029;-68
2023/02/12 04:35:30;;;;;;;134.00;58.90;;;7.10;99.90;;;;;;5105324;28;20024;-68
2023/02/12 04:38:10;;;;;;;142.20;59.05;;;7.10;99.90;;;;;;5096874;28;20101;-68
2023/02/12 04:40:39;;;;;;;139.23;58.97;;;7.00;99.90;;;;;;5098308;28;20051;-68
2023/02/12 04:43:04;;;;;;;140.32;61.00;;;7.10;99.90;;;;;;5094850;28;20085;-67
2023/02/12 04:45:32;;;;;;;139.07;59.08;;;7.10;99.90;;;;;;5096278;28;20040;-67
2023/02/12 04:47:58;;;;;;;126.72;56.65;;;7.00;99.90;;;;;;5095100;28;20054;-68
2023/02/12 04:50:24;;;;;;;140.70;61.10;;;7.00;99.90;;;;;;5096255;28;20478;-68
2023/02/12 04:52:50;;;;;;;136.95;61.03;;;7.00;99.90;;;;;;5092876;28;20024;-68
2023/02/12 04:55:16;;;;;;;138.50;60.28;;;7.10;99.90;;;;;;5095856;28;20035;-67
2023/02/12 04:57:42;;;;;;;138.15;59.40;;;7.00;99.90;;;;;;5094560;28;20027;-66
2023/02/12 05:00:11;;;;;;;138.93;60.67;;;7.00;99.90;;;;;;5095741;28;20398;-67
2023/02/12 05:02:36;;;;;;;125.28;57.10;;;7.00;99.90;;;;;;5093419;28;20031;-67
2023/02/12 05:05:03;;;;;;;124.15;57.75;;;7.00;99.90;;;;;;5093998;28;20085;-67
2023/02/12 05:07:28;;;;;;;136.05;57.47;;;7.00;99.90;;;;;;5085021;28;20031;-67
2023/02/12 05:09:54;;;;;;;131.48;60.60;;;7.00;99.90;;;;;;5075490;28;20028;-67
2023/02/12 05:12:19;;;;;;;126.05;55.90;;;7.00;99.90;;;;;;5088648;28;20462;-68
2023/02/12 05:14:45;;;;;;;140.85;61.40;;;7.00;99.90;;;;;;5095494;28;20036;-67
2023/02/12 05:17:10;;;;;;;140.82;58.40;;;7.00;99.90;;;;;;5094676;28;20028;-67
2023/02/12 05:19:36;;;;;;;141.50;61.90;;;7.00;99.90;;;;;;5085112;28;20035;-67
2023/02/12 05:22:02;;;;;;;142.32;59.50;;;7.00;99.90;;;;;;5092622;28;20107;-67
2023/02/12 05:24:27;;;;;;;150.20;62.65;;;7.00;99.90;;;;;;5095040;28;20046;-69
2023/02/12 05:26:53;;;;;;;138.98;61.42;;;7.00;99.90;;;;;;5094134;28;20028;-67
2023/02/12 05:29:18;;;;;;;139.98;60.53;;;7.10;99.90;;;;;;5094762;28;20048;-68
2023/02/12 05:31:44;;;;;;;134.50;57.38;;;7.10;99.90;;;;;;5092806;28;20035;-68
2023/02/12 05:34:11;;;;;;;128.57;58.45;;;7.00;99.90;;;;;;5095121;28;20035;-67
2023/02/12 05:36:37;;;;;;;127.65;58.97;;;7.00;99.90;;;;;;5092121;28;20023;-67
2023/02/12 05:39:03;;;;;;;133.32;56.53;;;7.00;99.90;;;;;;5091208;28;20398;-67
2023/02/12 05:41:33;;;;;;;120.63;56.08;;;7.00;99.90;;;;;;5095096;28;20028;-67
2023/02/12 05:43:59;;;;;;;117.05;54.13;;;7.00;99.90;;;;;;5093683;28;20043;-67
2023/02/12 05:46:24;;;;;;;136.02;57.80;;;7.00;99.90;;;;;;5085949;28;20025;-67
2023/02/12 05:48:50;;;;;;;137.57;58.63;;;7.00;99.90;;;;;;5074642;28;20031;-67
2023/02/12 05:51:20;;;;;;;125.30;56.78;;;7.00;99.90;;;;;;5074227;28;20032;-67
2023/02/12 05:53:46;;;;;;;139.65;61.00;;;7.00;99.90;;;;;;5078651;28;20040;-67
2023/02/12 05:56:15;;;;;;;138.60;59.70;;;6.90;99.90;;;;;;5078326;28;20020;-67
2023/02/12 05:58:43;;;;;;;122.75;54.20;;;7.00;99.90;;;;;;5092196;28;20079;-67
2023/02/12 06:01:15;;;;;;;129.25;56.80;;;7.00;99.90;;;;;;5086398;28;20032;-66
2023/02/12 06:03:41;;;;;;;127.75;56.20;;;6.90;99.90;;;;;;5085678;28;20035;-67
2023/02/12 06:06:07;;;;;;;137.23;58.42;;;6.90;99.90;;;;;;5083746;28;20028;-67
2023/02/12 06:08:33;;;;;;;134.77;57.97;;;6.90;99.90;;;;;;5090188;28;20064;-67
2023/02/12 06:11:01;;;;;;;130.93;57.92;;;6.90;99.90;;;;;;5092133;28;20291;-68
2023/02/12 06:13:26;;;;;;;138.50;56.90;;;6.90;99.90;;;;;;5094152;28;20416;-68
2023/02/12 06:15:52;;;;;;;136.48;58.10;;;6.90;99.90;;;;;;5093001;28;20072;-67
2023/02/12 06:18:17;;;;;;;138.35;60.13;;;6.90;99.90;;;;;;5094429;28;20115;-67
2023/02/12 06:20:43;;;;;;;144.73;59.95;;;6.90;99.90;;;;;;5092396;28;20123;-66
2023/02/12 06:23:08;;;;;;;143.35;58.78;;;6.90;99.90;;;;;;5093810;28;20156;-67
2023/02/12 06:25:35;;;;;;;147.15;61.45;;;6.90;99.90;;;;;;5080253;28;20491;-67
2023/02/12 06:28:00;;;;;;;141.52;60.58;;;6.90;99.90;;;;;;5074463;28;20089;-67
2023/02/12 06:30:26;;;;;;;153.55;61.63;;;6.80;99.90;;;;;;5077447;28;20111;-67
2023/02/12 06:32:52;;;;;;;141.23;58.22;;;6.90;99.90;;;;;;5093329;28;20039;-67
2023/02/12 06:35:17;;;;;;;145.00;60.03;;;6.90;99.90;;;;;;5076525;28;20048;-67
2023/02/12 06:37:43;;;;;;;148.15;60.00;;;6.90;99.90;;;;;;5077680;28;20101;-67
2023/02/12 06:40:09;;;;;;;151.60;60.95;;;6.80;99.90;;;;;;5093853;28;20032;-67
2023/02/12 06:42:34;;;;;;;148.80;60.83;;;6.80;99.90;;;;;;5089850;28;20028;-67
2023/02/12 06:45:00;;;;;;;152.82;61.80;;;6.90;99.90;;;;;;5073427;28;20029;-67
2023/02/12 06:47:26;;;;;;;142.82;59.10;;;6.90;99.90;;;;;;5091669;28;20115;-67
2023/02/12 06:49:52;;;;;;;138.88;58.35;;;6.90;99.90;;;;;;5093991;28;20039;-67
2023/02/12 06:52:17;;;;;;;136.25;58.67;;;6.90;99.90;;;;;;5092550;28;20024;-68
2023/02/12 06:54:43;;;;;;;146.60;59.42;;;6.90;99.90;;;;;;5093196;28;20393;-69
2023/02/12 06:57:08;;;;;;;136.85;60.30;;;6.90;99.90;;;;;;5085856;28;20394;-68
2023/02/12 06:59:34;;;;;;;137.48;60.80;;;6.90;99.90;;;;;;5076238;28;20028;-68
2023/02/12 07:01:59;;;;;;;131.70;57.35;;;6.90;99.90;;;;;;5091810;28;20032;-68
2023/02/12 07:04:25;;;;;;;128.45;55.53;;;6.90;99.90;;;;;;5092119;28;20123;-68
2023/02/12 07:06:51;;;;;;;132.30;58.10;;;6.90;99.90;;;;;;5092708;28;20044;-68
2023/02/12 07:09:16;;;;;;;127.53;58.33;;;6.90;99.90;;;;;;5093047;28;20390;-68
2023/02/12 07:11:42;;;;;;;138.02;58.63;;;6.90;99.90;;;;;;5092470;28;20512;-68
2023/02/12 07:14:14;;;;;;;133.57;59.20;;;6.90;99.90;;;;;;5091140;28;20488;-69
2023/02/12 07:16:40;;;;;;;135.23;57.13;;;7.00;99.90;;;;;;5091943;28;20528;-68
2023/02/12 07:19:06;;;;;;;125.65;56.75;;;7.00;99.90;;;;;;5090248;28;20036;-68
2023/02/12 07:21:32;;;;;;;125.88;56.47;;;7.00;99.90;;;;;;5073140;28;20058;-68
2023/02/12 07:23:58;;;;;;;117.43;54.30;;;7.10;99.90;;;;;;5082862;28;20158;-68
2023/02/12 07:26:24;;;;;;;115.38;52.70;;;7.10;99.90;;;;;;5093313;28;20026;-68
2023/02/12 07:28:50;;;;;;;119.70;54.40;;;7.20;99.90;;;;;;5086824;28;20048;-68
2023/02/12 07:31:19;;;;;;;113.80;51.10;;;7.20;99.90;;;;;;5078029;28;20063;-68
2023/02/12 07:33:45;;;;;;;120.07;53.97;;;7.30;99.90;;;;;;5090452;28;20028;-68
2023/02/12 07:36:14;;;;;;;122.35;51.60;;;7.30;99.90;;;;;;5092713;28;20111;-70
2023/02/12 07:38:39;;;;;;;107.43;51.63;;;7.30;99.90;;;;;;5092475;28;20031;-67
2023/02/12 07:41:11;;;;;;;122.32;54.50;;;7.20;99.90;;;;;;5088830;28;20398;-68
2023/02/12 07:43:38;;;;;;;117.70;52.67;;;7.30;99.90;;;;;;5092186;28;20066;-68
2023/02/12 07:46:09;;;;;;;113.28;52.28;;;7.30;99.90;;;;;;5089311;28;20025;-68
2023/02/12 07:48:34;;;;;;;111.63;51.63;;;7.30;99.90;;;;;;5072703;28;20474;-69
2023/02/12 07:51:06;;;;;;;107.47;50.72;;;7.40;99.90;;;;;;5075056;28;20119;-67
2023/02/12 07:53:32;;;;;;;107.53;50.08;;;7.50;99.90;;;;;;5075468;28;20028;-68
2023/02/12 07:56:15;;;;;;;106.80;49.75;;;7.50;99.90;;;;;;5091966;28;20119;-68
2023/02/12 07:58:43;;;;;;;100.10;48.33;;;7.60;99.90;;;;;;5090743;28;20032;-69
2023/02/12 08:01:14;;;;;;;101.07;47.80;;;7.70;99.90;;;;;;5097119;28;20036;-68
2023/02/12 08:03:40;;;;;;;103.90;48.35;;;7.70;99.90;;;;;;5086344;28;20066;-68
2023/02/12 08:06:08;;;;;;;96.43;46.88;;;7.70;99.90;;;;;;5085079;28;20056;-67
2023/02/12 08:08:33;;;;;;;106.05;48.70;;;7.80;99.90;;;;;;5092226;28;20065;-68
2023/02/12 08:10:59;;;;;;;105.13;48.60;;;7.70;99.90;;;;;;5090593;28;20460;-69
2023/02/12 08:13:24;;;;;;;97.82;46.35;;;7.80;99.90;;;;;;5087552;28;20568;-67
2023/02/12 08:15:59;;;;;;;106.10;48.60;;;7.80;99.90;;;;;;5087058;28;20048;-68
2023/02/12 08:18:24;;;;;;;95.72;45.15;;;7.90;99.90;;;;;;5090775;28;20062;-67
2023/02/12 08:20:50;;;;;;;102.10;47.88;;;7.90;99.90;;;;;;5088907;28;20071;-68
2023/02/12 08:23:15;;;;;;;95.88;47.38;;;7.90;99.90;;;;;;5089379;28;20030;-67
2023/02/12 08:25:41;;;;;;;98.97;47.15;;;8.00;99.90;;;;;;5093956;28;20452;-68
2023/02/12 08:28:06;;;;;;;88.55;45.30;;;8.00;99.90;;;;;;5095454;28;20040;-67
2023/02/12 08:30:31;;;;;;;85.65;42.97;;;8.10;99.90;;;;;;5090699;28;20054;-69
2023/02/12 08:32:57;;;;;;;91.43;44.80;;;8.10;99.90;;;;;;5094514;28;20036;-69
2023/02/12 08:35:22;;;;;;;93.00;44.67;;;8.20;99.90;;;;;;5092938;28;20042;-69
2023/02/12 08:37:48;;;;;;;84.63;42.92;;;8.30;99.90;;;;;;5076003;28;20072;-69
2023/02/12 08:40:13;;;;;;;87.03;43.45;;;8.30;99.90;;;;;;5077873;28;20054;-69
2023/02/12 08:42:39;;;;;;;87.20;43.92;;;8.40;99.90;;;;;;5080955;28;20032;-70
2023/02/12 08:45:05;;;;;;;82.75;42.38;;;8.50;99.90;;;;;;5095806;28;20021;-69
2023/02/12 08:47:30;;;;;;;84.65;42.33;;;8.50;99.90;;;;;;5079220;28;20036;-69
2023/02/12 08:49:56;;;;;;;86.70;41.72;;;8.60;99.90;;;;;;5087044;28;20514;-70
2023/02/12 08:52:21;;;;;;;89.18;42.95;;;8.70;99.90;;;;;;5094393;28;20031;-69
2023/02/12 08:54:47;;;;;;;78.00;39.63;;;8.70;99.90;;;;;;5095455;28;20028;-70
2023/02/12 08:57:12;;;;;;;75.13;38.33;;;8.90;99.90;;;;;;5092949;28;20036;-70
2023/02/12 08:59:38;;;;;;;77.72;37.70;;;8.80;99.90;;;;;;5075932;28;20063;-70
2023/02/12 09:02:07;;;;;;;73.03;37.65;;;9.10;99.90;;;;;;5088314;28;20020;-68
2023/02/12 09:04:34;;;;;;;67.45;36.50;;;9.20;99.90;;;;;;5095449;28;20078;-69
2023/02/12 09:07:00;;;;;;;68.90;35.03;;;9.20;99.90;;;;;;5094453;28;20035;-69
2023/02/12 09:09:26;;;;;;;67.82;34.03;;;9.20;99.90;;;;;;5087850;28;20032;-68
2023/02/12 09:11:51;;;;;;;64.93;33.35;;;9.10;99.90;;;;;;5090756;28;20081;-70
2023/02/12 09:14:22;;;;;;;62.47;33.17;;;9.20;99.90;;;;;;5087030;28;20028;-68
2023/02/12 09:16:48;;;;;;;66.28;33.17;;;9.20;99.90;;;;;;5094843;28;20766;-69
2023/02/12 09:19:13;;;;;;;64.75;33.25;;;9.20;99.90;;;;;;5088372;28;20028;-69
2023/02/12 09:21:39;;;;;;;62.60;33.70;;;9.10;99.90;;;;;;5092124;28;20044;-68
2023/02/12 09:24:05;;;;;;;63.00;31.92;;;9.10;99.90;;;;;;5074723;28;20059;-69
2023/02/12 09:26:31;;;;;;;60.67;32.33;;;9.10;99.90;;;;;;5092057;28;20055;-69
2023/02/12 09:28:56;;;;;;;65.25;33.10;;;9.10;99.90;;;;;;5094758;28;20074;-69
2023/02/12 09:31:26;;;;;;;61.67;32.50;;;9.10;99.90;;;;;;5093886;28;20027;-68
2023/02/12 09:33:54;;;;;;;58.30;33.10;;;9.10;99.90;;;;;;5094040;28;20069;-69
2023/02/12 09:36:20;;;;;;;65.15;33.08;;;9.10;99.90;;;;;;5088900;28;20028;-69
2023/02/12 09:38:45;;;;;;;61.97;33.72;;;9.10;99.90;;;;;;5082437;28;20036;-69
2023/02/12 09:41:41;;;;;;;58.05;31.02;;;9.30;99.90;;;;;;5081941;28;20039;-68
2023/02/12 09:44:43;;;;;;;61.25;33.03;;;9.20;99.90;;;;;;5084508;28;20389;-69
2023/02/12 09:47:19;;;;;;;60.08;32.53;;;9.20;99.90;;;;;;5107469;28;20106;-68
2023/02/12 09:52:34;;;;;;;54.53;30.05;;;9.40;99.90;;;;;;5106975;27;20463;-69
2023/02/12 09:55:00;;;;;;;53.03;30.35;;;9.40;99.90;;;;;;5109417;28;20461;-69
2023/02/12 09:57:32;;;;;;;52.97;29.88;;;9.50;99.90;;;;;;5094753;28;20050;-68
2023/02/12 10:00:04;;;;;;;58.50;30.05;;;9.60;99.90;;;;;;5109475;28;20062;-68
2023/02/12 10:02:29;;;;;;;54.55;30.58;;;9.50;99.90;;;;;;5109712;28;20028;-69
2023/02/12 10:04:55;;;;;;;53.47;30.27;;;9.50;99.90;;;;;;5110552;28;20504;-67
2023/02/12 10:07:36;;;;;;;57.35;31.60;;;9.40;99.90;;;;;;5109897;28;20024;-68
2023/02/12 10:10:17;;;;;;;56.40;29.65;;;9.50;99.90;;;;;;5108156;28;20035;-67
2023/02/12 10:15:47;;;;;;;56.90;30.23;;;9.50;99.90;;;;;;5098027;27;20405;-68
2023/02/12 10:18:42;;;;;;;55.42;29.67;;;9.40;99.90;;;;;;5102447;28;20040;-67
2023/02/12 10:21:46;;;;;;;49.78;29.02;;;9.50;99.90;;;;;;5109545;28;20036;-69
2023/02/12 10:24:39;;;;;;;53.45;29.15;;;9.50;99.90;;;;;;5102493;28;20048;-69
2023/02/12 10:27:13;;;;;;;48.90;27.77;;;9.50;99.90;;;;;;5098280;28;20019;-68
2023/02/12 10:29:42;;;;;;;48.90;28.67;;;9.50;99.90;;;;;;5106240;28;20028;-68
2023/02/12 10:32:23;;;;;;;53.45;29.50;;;9.50;99.90;;;;;;5100362;28;20473;-68
2023/02/12 10:34:50;;;;;;;57.67;29.55;;;9.50;99.90;;;;;;5099198;28;20444;-69
2023/02/12 10:37:41;;;;;;;50.20;29.50;;;9.60;99.90;;;;;;5099906;28;20039;-69
2023/02/12 10:40:28;;;;;;;54.83;30.35;;;9.50;99.90;;;;;;5102165;28;20095;-69
2023/02/12 10:42:56;;;;;;;54.17;30.13;;;9.60;99.90;;;;;;5106044;28;20050;-68
2023/02/12 10:45:33;;;;;;;54.25;29.92;;;9.60;99.90;;;;;;5089146;28;21225;-68
2023/02/12 10:48:08;;;;;;;53.17;29.73;;;9.60;99.90;;;;;;5102005;28;20019;-68
2023/02/12 10:51:03;;;;;;;49.63;28.25;;;9.80;99.90;;;;;;5109169;28;20389;-69
2023/02/12 10:53:42;;;;;;;50.85;26.33;;;9.80;99.90;;;;;;5109488;28;20038;-68
2023/02/12 10:58:52;;;;;;;45.25;25.63;;;9.90;99.90;;;;;;5082229;28;21060;-68
2023/02/12 11:01:29;;;;;;;48.50;26.67;;;9.90;99.90;;;;;;5057811;28;20451;-68
2023/02/12 11:03:57;;;;;;;47.47;27.75;;;9.90;99.90;;;;;;5062338;28;20083;-68
2023/02/12 11:06:28;;;;;;;46.78;25.83;;;10.10;99.90;;;;;;5075549;28;20029;-69
2023/02/12 11:08:54;;;;;;;44.90;25.80;;;10.00;99.90;;;;;;5073829;28;20086;-68
2023/02/12 11:11:30;;;;;;;45.35;25.23;;;10.20;99.90;;;;;;5078061;28;20067;-69
2023/02/12 11:14:01;;;;;;;45.85;25.45;;;10.40;99.90;;;;;;5071597;28;20035;-68
2023/02/12 11:16:34;;;;;;;46.17;25.27;;;10.60;99.90;;;;;;5073024;28;20093;-69
2023/02/12 11:19:05;;;;;;;39.10;23.88;;;10.90;99.90;;;;;;5086075;28;20778;-68
2023/02/12 11:21:32;;;;;;;32.40;20.55;;;11.00;99.90;;;;;;5080189;28;20028;-69
2023/02/12 11:24:28;;;;;;;34.22;20.25;;;10.90;99.90;;;;;;5082887;28;20024;-68
2023/02/12 11:27:12;;;;;;;38.67;22.67;;;10.90;99.90;;;;;;5068304;28;20076;-68
2023/02/12 11:29:38;;;;;;;35.22;21.77;;;10.90;99.90;;;;;;5068858;28;20032;-68
2023/02/12 11:32:07;;;;;;;33.05;20.65;;;10.80;99.90;;;;;;5075832;28;20028;-69
2023/02/12 11:34:34;;;;;;;38.03;21.70;;;10.90;99.90;;;;;;5057801;28;20456;-68
2023/02/12 11:37:01;;;;;;;37.25;22.17;;;11.00;99.90;;;;;;5073744;28;20040;-67
2023/02/12 11:39:33;;;;;;;34.08;21.38;;;11.10;99.90;;;;;;5074732;28;20043;-68
2023/02/12 11:42:04;;;;;;;35.22;20.77;;;11.20;99.90;;;;;;5069358;28;20082;-69
2023/02/12 11:44:35;;;;;;;33.65;19.45;;;11.40;99.90;;;;;;5061817;28;20071;-69
2023/02/12 11:47:07;;;;;;;34.08;20.90;;;11.40;99.90;;;;;;5080924;28;20536;-69
2023/02/12 11:49:37;;;;;;;33.40;20.52;;;11.50;99.90;;;;;;5069306;28;20029;-69
2023/02/12 11:52:04;;;;;;;35.28;21.45;;;11.60;99.90;;;;;;5053116;28;20112;-69
2023/02/12 11:54:37;;;;;;;32.03;18.75;;;11.80;99.90;;;;;;5062903;28;20493;-68
2023/02/12 11:57:03;;;;;;;31.40;19.40;;;12.00;99.90;;;;;;5067694;28;20103;-69
2023/02/12 12:04:53;;;;;;;31.75;19.65;;;11.80;99.90;;;;;;5110289;27;20396;-68
2023/02/12 12:07:24;;;;;;;30.50;19.48;;;11.60;99.90;;;;;;5095111;28;20505;-68
2023/02/12 12:10:04;;;;;;;33.20;19.50;;;11.30;99.90;;;;;;5093222;28;20060;-68
2023/02/12 12:12:50;;;;;;;30.98;17.95;;;11.20;99.90;;;;;;5089654;28;20025;-68
2023/02/12 12:21:40;;;;;;;26.65;17.25;;;11.40;99.90;;;;;;5090324;28;20029;-68
2023/02/12 12:24:19;;;;;;;27.83;18.02;;;11.50;99.90;;;;;;5090378;28;20463;-68
2023/02/12 12:26:59;;;;;;;32.67;18.67;;;11.70;99.90;;;;;;5090002;28;20024;-68
2023/02/12 12:29:43;;;;;;;32.08;18.67;;;11.80;99.90;;;;;;5090562;28;20021;-68
2023/02/12 12:32:14;;;;;;;29.00;19.15;;;11.40;99.90;;;;;;5090338;28;20386;-68
2023/02/12 12:34:39;;;;;;;31.38;19.13;;;11.40;99.90;;;;;;5090279;28;20024;-67
2023/02/12 12:37:36;;;;;;;33.13;20.67;;;11.20;99.90;;;;;;5090140;28;20028;-68
2023/02/12 12:40:34;;;;;;;30.58;19.65;;;11.10;99.90;;;;;;5090248;28;20104;-68
2023/02/12 12:43:39;;;;;;;32.13;19.67;;;11.20;99.90;;;;;;5090023;28;20024;-68
2023/02/12 12:46:39;;;;;;;32.22;18.98;;;11.20;99.90;;;;;;5089918;28;20070;-68
2023/02/12 12:49:45;;;;;;;34.38;19.17;;;11.00;99.90;;;;;;5089855;28;20020;-68
2023/02/12 12:52:50;;;;;;;34.38;19.48;;;11.10;99.90;;;;;;5089723;28;20025;-68
2023/02/12 12:55:42;;;;;;;28.52;17.80;;;11.10;99.90;;;;;;5089843;28;20044;-68
2023/02/12 12:58:47;;;;;;;32.38;18.75;;;11.10;99.90;;;;;;5089572;28;20470;-68
2023/02/12 13:01:39;;;;;;;30.52;19.73;;;11.20;99.90;;;;;;5089471;28;20035;-68
2023/02/12 13:07:12;;;;;;;25.98;16.98;;;11.00;99.90;;;;;;5113994;27;1180251;-69
2023/02/12 13:10:04;;;;;;;30.02;17.27;;;11.00;99.90;;;;;;5131688;28;20049;-69
2023/02/12 13:12:47;;;;;;;29.65;18.70;;;11.00;99.90;;;;;;5131370;28;20438;-68
2023/02/12 13:15:27;;;;;;;31.40;18.67;;;11.00;99.90;;;;;;5131667;28;20030;-68
2023/02/12 13:18:09;;;;;;;32.25;18.67;;;11.00;99.90;;;;;;5131406;27;20074;-68
2023/02/12 13:21:03;;;;;;;27.70;17.80;;;11.00;99.90;;;;;;5131556;27;20032;-68